Jean Anne — WDC3786 — position and weather

sailwx.info

Track history (hours):
 
Tides and Currents Weather Stations Pressure Air Temp Water Temp Dewpoint Dewpoint Depression Visibility Wind Speed Wind Dir Waves Ship Positions

Jean Anne

Owner: PASHA HAWAII TRANSPORT LINES LLC, National City, CA. More information available from US FCC via Universal Licensing System and Coast Guard Vessel Documentation Center.

Last reported at 2015-Jul-03 12:00 UTC. Time now 2015-Jul-04 01:38 UTC.
Position N 21°54' W 150°06'.

Type: Cargo ship. MMSI: 367003380.

Wind from 070 at 14 knots

Waves 1.0 meters (3 feet), 2 second period

Barometer 1015.1 mb
Air temperature 24.2 ° C
Visibility: greater than 10.8 NM
Dewpoint 20.9 ° C

Date/timePositionNaut miles runAvg speedWind from/ knotsBaromVisibWave heightAir tempDewpointWater temp
2015-Jul-03 12:00N 21°54' W 150°06'   070 / 141015.110.8 1.024.220.9
2015-Jun-29 12:00N 22°36' W 153°54'   110 / 91017.010.8 0.524.522.4
2015-Jun-25 20:20N 30°15' W 123°42'2119.2
2015-Jun-25 19:14N 30°18' W 123°18'1919.2
2015-Jun-25 18:15N 30°20' W 122°56'1419.4
2015-Jun-25 17:33N 30°22' W 122°40'1919.4
2015-Jun-25 16:34N 30°25' W 122°18'2219.3
2015-Jun-25 15:26N 30°27' W 121°53'1819.4
2015-Jun-25 14:32N 30°31' W 121°33'1919.2
2015-Jun-25 13:32N 30°35' W 121°12'1919.1
2015-Jun-25 12:33N 30°38' W 120°50'2019.2
2015-Jun-25 11:31N 30°43' W 120°28'1919.3
2015-Jun-25 10:34N 30°46' W 120°07'2019.4
2015-Jun-25 09:31N 30°51' W 119°43'1919.4
2015-Jun-25 08:33N 30°54' W 119°22'1919.3
2015-Jun-25 07:34N 30°58' W 119°00'1919.1
2015-Jun-25 06:34N 31°03' W 118°38'2019.7
2015-Jun-25 05:34N 31°17' W 118°22'2019.6
2015-Jun-25 04:33N 31°33' W 118°09'2019.6
2015-Jun-25 03:34N 31°49' W 117°56'2019.5
2015-Jun-25 02:33N 32°05' W 117°42'1717.5
2015-Jun-25 01:33N 32°19' W 117°30'1515.3
2015-Jun-25 00:34N 32°31' W 117°20'1312.9
2015-Jun-24 23:34N 32°43' W 117°13'6 5.9
2015-Jun-24 22:34N 32°39' W 117°07'0 0.0
2015-Jun-24 21:34N 32°39' W 117°07'0 0.0
2015-Jun-24 20:31N 32°39' W 117°07'0 0.0
2015-Jun-24 19:33N 32°39' W 117°07'0 0.0
2015-Jun-24 18:33N 32°39' W 117°07'0 0.0
2015-Jun-24 17:33N 32°39' W 117°07'0 0.0
2015-Jun-24 16:33N 32°39' W 117°07'0 0.0
2015-Jun-24 15:33N 32°39' W 117°07'0 0.0
2015-Jun-24 14:30N 32°39' W 117°07'0 0.0
2015-Jun-24 13:33N 32°39' W 117°07'0 0.0
2015-Jun-24 12:33N 32°39' W 117°07'0 0.0
2015-Jun-24 11:33N 32°39' W 117°07'0 0.0
2015-Jun-24 10:24N 32°39' W 117°07'0 0.0
2015-Jun-24 09:33N 32°39' W 117°07'0 0.0
2015-Jun-24 08:33N 32°39' W 117°07'0 0.0
2015-Jun-24 07:27N 32°39' W 117°07'0 0.0
2015-Jun-24 06:33N 32°39' W 117°07'0 0.0
2015-Jun-24 05:33N 32°39' W 117°07'0 0.0
2015-Jun-24 04:33N 32°39' W 117°07'0 0.0
2015-Jun-24 03:30N 32°39' W 117°07'0 0.0
2015-Jun-24 02:33N 32°39' W 117°07'0 0.0
2015-Jun-24 01:33N 32°39' W 117°07'0 0.0
2015-Jun-24 00:33N 32°39' W 117°07'0 0.0
2015-Jun-23 23:30N 32°39' W 117°07'0 0.0
2015-Jun-23 22:33N 32°39' W 117°07'0 0.0
2015-Jun-23 21:33N 32°39' W 117°07'0 0.0
2015-Jun-23 20:33N 32°39' W 117°07'0 0.0
2015-Jun-23 19:33N 32°39' W 117°07'0 0.0
2015-Jun-23 19:03N 32°39' W 117°07'  
Track history (hours):
 
Tides and Currents Weather Stations Pressure Air Temp Water Temp Dewpoint Dewpoint Depression Visibility Wind Speed Wind Dir Waves Ship Positions

Jean Anne

Owner: PASHA HAWAII TRANSPORT LINES LLC, National City, CA. More information available from US FCC via Universal Licensing System and Coast Guard Vessel Documentation Center.

Last reported at 2015-Jul-03 12:00 UTC. Time now 2015-Jul-04 01:38 UTC.
Position N 21°54' W 150°06'.

Type: Cargo ship. MMSI: 367003380.

Wind from 070 at 14 knots

Waves 1.0 meters (3 feet), 2 second period

Barometer 1015.1 mb
Air temperature 24.2 ° C
Visibility: greater than 10.8 NM
Dewpoint 20.9 ° C

Date/timePositionNaut miles runAvg speedWind from/ knotsBaromVisibWave heightAir tempDewpointWater temp
2015-Jul-03 12:00N 21°54' W 150°06'   070 / 141015.110.8 1.024.220.9
2015-Jun-29 12:00N 22°36' W 153°54'   110 / 91017.010.8 0.524.522.4
2015-Jun-25 20:20N 30°15' W 123°42'2119.2
2015-Jun-25 19:14N 30°18' W 123°18'1919.2
2015-Jun-25 18:15N 30°20' W 122°56'1419.4
2015-Jun-25 17:33N 30°22' W 122°40'1919.4
2015-Jun-25 16:34N 30°25' W 122°18'2219.3
2015-Jun-25 15:26N 30°27' W 121°53'1819.4
2015-Jun-25 14:32N 30°31' W 121°33'1919.2
2015-Jun-25 13:32N 30°35' W 121°12'1919.1
2015-Jun-25 12:33N 30°38' W 120°50'2019.2
2015-Jun-25 11:31N 30°43' W 120°28'1919.3
2015-Jun-25 10:34N 30°46' W 120°07'2019.4
2015-Jun-25 09:31N 30°51' W 119°43'1919.4
2015-Jun-25 08:33N 30°54' W 119°22'1919.3
2015-Jun-25 07:34N 30°58' W 119°00'1919.1
2015-Jun-25 06:34N 31°03' W 118°38'2019.7
2015-Jun-25 05:34N 31°17' W 118°22'2019.6
2015-Jun-25 04:33N 31°33' W 118°09'2019.6
2015-Jun-25 03:34N 31°49' W 117°56'2019.5
2015-Jun-25 02:33N 32°05' W 117°42'1717.5
2015-Jun-25 01:33N 32°19' W 117°30'1515.3
2015-Jun-25 00:34N 32°31' W 117°20'1312.9
2015-Jun-24 23:34N 32°43' W 117°13'6 5.9
2015-Jun-24 22:34N 32°39' W 117°07'0 0.0
2015-Jun-24 21:34N 32°39' W 117°07'0 0.0
2015-Jun-24 20:31N 32°39' W 117°07'0 0.0
2015-Jun-24 19:33N 32°39' W 117°07'0 0.0
2015-Jun-24 18:33N 32°39' W 117°07'0 0.0
2015-Jun-24 17:33N 32°39' W 117°07'0 0.0
2015-Jun-24 16:33N 32°39' W 117°07'0 0.0
2015-Jun-24 15:33N 32°39' W 117°07'0 0.0
2015-Jun-24 14:30N 32°39' W 117°07'0 0.0
2015-Jun-24 13:33N 32°39' W 117°07'0 0.0
2015-Jun-24 12:33N 32°39' W 117°07'0 0.0
2015-Jun-24 11:33N 32°39' W 117°07'0 0.0
2015-Jun-24 10:24N 32°39' W 117°07'0 0.0
2015-Jun-24 09:33N 32°39' W 117°07'0 0.0
2015-Jun-24 08:33N 32°39' W 117°07'0 0.0
2015-Jun-24 07:27N 32°39' W 117°07'0 0.0
2015-Jun-24 06:33N 32°39' W 117°07'0 0.0
2015-Jun-24 05:33N 32°39' W 117°07'0 0.0
2015-Jun-24 04:33N 32°39' W 117°07'0 0.0
2015-Jun-24 03:30N 32°39' W 117°07'0 0.0
2015-Jun-24 02:33N 32°39' W 117°07'0 0.0
2015-Jun-24 01:33N 32°39' W 117°07'0 0.0
2015-Jun-24 00:33N 32°39' W 117°07'0 0.0
2015-Jun-23 23:30N 32°39' W 117°07'0 0.0
2015-Jun-23 22:33N 32°39' W 117°07'0 0.0
2015-Jun-23 21:33N 32°39' W 117°07'0 0.0
2015-Jun-23 20:33N 32°39' W 117°07'0 0.0
2015-Jun-23 19:33N 32°39' W 117°07'0 0.0
2015-Jun-23 19:03N 32°39' W 117°07'  

Dump ship's entire track history